createdAt,value
2022-09-30T00:01:56.451Z,100787.58
2022-09-30T00:04:26.680Z,100778.66
2022-09-30T00:06:56.521Z,100784.55
2022-09-30T00:09:25.977Z,100776.72
2022-09-30T00:11:55.559Z,100785.00
2022-09-30T00:14:25.247Z,100787.10
2022-09-30T00:16:54.537Z,100784.66
2022-09-30T00:19:23.819Z,100788.62
2022-09-30T00:21:53.239Z,100782.42
2022-09-30T00:24:22.474Z,100783.97
2022-09-30T00:26:51.678Z,100773.45
2022-09-30T00:29:21.172Z,100778.19
2022-09-30T00:31:50.871Z,100779.78
2022-09-30T00:34:20.182Z,100783.25
2022-09-30T00:36:52.642Z,100786.65
2022-09-30T00:39:24.338Z,100787.71
2022-09-30T00:41:56.790Z,100788.99
2022-09-30T00:44:54.715Z,100794.91
2022-09-30T00:47:29.757Z,100789.44
2022-09-30T00:50:14.633Z,100791.55
2022-09-30T00:52:47.959Z,100795.52
2022-09-30T00:55:26.028Z,100788.80
2022-09-30T00:57:55.722Z,100789.52
2022-09-30T01:00:25.002Z,100785.69
2022-09-30T01:02:55.216Z,100782.98
2022-09-30T01:05:26.706Z,100785.13
2022-09-30T01:07:59.251Z,100781.84
2022-09-30T01:10:27.768Z,100784.17
2022-09-30T01:12:57.850Z,100784.95
2022-09-30T01:15:30.250Z,100778.27
2022-09-30T01:18:02.917Z,100784.95
2022-09-30T01:20:55.390Z,100778.20
2022-09-30T01:23:36.934Z,100776.05
2022-09-30T01:26:12.278Z,100781.72
2022-09-30T01:28:50.178Z,100781.94
2022-09-30T01:31:31.403Z,100785.64
2022-09-30T01:34:12.945Z,100784.30
2022-09-30T01:37:00.584Z,100785.33
2022-09-30T01:39:39.215Z,100786.66
2022-09-30T01:42:14.412Z,100792.77
2022-09-30T01:44:53.577Z,100794.31
2022-09-30T01:47:28.249Z,100803.75
2022-09-30T01:50:18.649Z,100802.66
2022-09-30T01:53:06.440Z,100795.97
2022-09-30T01:56:00.289Z,100794.62
2022-09-30T01:58:38.553Z,100798.33
2022-09-30T02:01:11.210Z,100795.66
2022-09-30T02:03:41.514Z,100801.25
2022-09-30T02:06:14.195Z,100804.18
2022-09-30T02:08:52.421Z,100800.17
2022-09-30T02:11:28.008Z,100795.63
2022-09-30T02:14:03.107Z,100785.36
2022-09-30T02:16:35.564Z,100790.89
2022-09-30T02:19:16.587Z,100785.72
2022-09-30T02:21:49.316Z,100788.12
2022-09-30T02:24:19.394Z,100787.06
2022-09-30T02:26:49.693Z,100785.16
2022-09-30T02:29:24.802Z,100795.30
2022-09-30T02:31:57.195Z,100789.08
2022-09-30T02:34:32.903Z,100793.96
2022-09-30T02:37:05.723Z,100793.47
2022-09-30T02:39:59.204Z,100786.50
2022-09-30T02:42:30.437Z,100784.28
2022-09-30T02:45:08.737Z,100795.20
2022-09-30T02:47:58.211Z,100792.70
2022-09-30T02:50:42.182Z,100790.22
2022-09-30T02:53:33.329Z,100797.39
2022-09-30T02:56:18.479Z,100792.26
2022-09-30T02:58:48.539Z,100789.05
2022-09-30T03:01:18.613Z,100784.48
2022-09-30T03:04:07.258Z,100785.01
2022-09-30T03:06:37.682Z,100792.75
2022-09-30T03:09:08.024Z,100800.17
2022-09-30T03:11:38.629Z,100801.30
2022-09-30T03:14:20.487Z,100794.02
2022-09-30T03:16:55.644Z,100797.50
2022-09-30T03:19:56.757Z,100793.70
2022-09-30T03:22:51.369Z,100795.78
2022-09-30T03:25:26.691Z,100797.92
2022-09-30T03:28:05.260Z,100805.73
2022-09-30T03:30:37.885Z,100807.88
2022-09-30T03:33:11.299Z,100819.42
2022-09-30T03:36:03.445Z,100827.75
2022-09-30T03:38:47.980Z,100825.58
2022-09-30T03:41:20.434Z,100826.70
2022-09-30T03:43:59.512Z,100831.80
2022-09-30T03:46:31.944Z,100835.00
2022-09-30T03:49:04.185Z,100835.98
2022-09-30T03:51:35.766Z,100837.56
2022-09-30T03:54:10.470Z,100840.53
2022-09-30T03:56:42.065Z,100850.70
2022-09-30T03:59:13.549Z,100854.95
2022-09-30T04:01:42.898Z,100867.27
2022-09-30T04:04:12.624Z,100871.27
2022-09-30T04:06:41.856Z,100869.89
2022-09-30T04:09:11.146Z,100864.66
2022-09-30T04:11:40.528Z,100857.73
2022-09-30T04:14:09.932Z,100863.32
2022-09-30T04:16:39.256Z,100869.48
2022-09-30T04:19:08.999Z,100877.67
2022-09-30T04:21:38.283Z,100875.17
2022-09-30T04:24:08.539Z,100876.23
2022-09-30T04:26:37.761Z,100878.33
2022-09-30T04:29:07.070Z,100872.91
2022-09-30T04:31:36.554Z,100884.37
2022-09-30T04:34:06.233Z,100879.27
2022-09-30T04:36:35.788Z,100887.41
2022-09-30T04:39:05.595Z,100886.64
2022-09-30T04:41:34.798Z,100881.86
2022-09-30T04:44:05.739Z,100877.32
2022-09-30T04:46:37.039Z,100888.74
2022-09-30T04:49:09.371Z,100894.90
2022-09-30T04:51:38.541Z,100881.98
2022-09-30T04:54:07.886Z,100888.63
2022-09-30T04:56:37.291Z,100887.74
2022-09-30T04:59:07.158Z,100893.55
2022-09-30T05:01:36.504Z,100894.02
2022-09-30T05:04:05.999Z,100899.20
2022-09-30T05:06:35.359Z,100896.70
2022-09-30T05:09:04.788Z,100896.12
2022-09-30T05:11:34.177Z,100900.14
2022-09-30T05:14:05.279Z,100897.87
2022-09-30T05:16:34.799Z,100901.11
2022-09-30T05:19:04.598Z,100901.47
2022-09-30T05:21:34.081Z,100898.97
2022-09-30T05:24:04.025Z,100907.75
2022-09-30T05:26:33.230Z,100903.66
2022-09-30T05:29:03.386Z,100910.59
2022-09-30T05:31:32.644Z,100905.13
2022-09-30T05:34:02.198Z,100917.39
2022-09-30T05:36:31.454Z,100918.41
2022-09-30T05:39:00.706Z,100923.76
2022-09-30T05:41:29.918Z,100919.47
2022-09-30T05:44:01.022Z,100917.68
2022-09-30T05:46:30.753Z,100926.55
2022-09-30T05:49:00.635Z,100928.20
2022-09-30T05:51:29.829Z,100936.50
2022-09-30T05:53:59.253Z,100934.69
2022-09-30T05:56:28.531Z,100931.69
2022-09-30T05:58:57.767Z,100932.21
2022-09-30T06:01:26.971Z,100932.78
2022-09-30T06:03:56.220Z,100939.75
2022-09-30T06:06:25.438Z,100939.30
2022-09-30T06:08:54.811Z,100944.77
2022-09-30T06:11:24.977Z,100948.25
2022-09-30T06:13:54.306Z,100944.64
2022-09-30T06:16:24.206Z,100943.63
2022-09-30T06:18:54.571Z,100942.77
2022-09-30T06:21:23.858Z,100939.34
2022-09-30T06:23:53.163Z,100947.95
2022-09-30T06:26:22.452Z,100948.77
2022-09-30T06:28:51.871Z,100952.98
2022-09-30T06:31:21.187Z,100956.80
2022-09-30T06:33:54.929Z,100953.70
2022-09-30T06:36:24.544Z,100952.31
2022-09-30T06:38:54.435Z,100958.97
2022-09-30T06:41:25.455Z,100953.09
2022-09-30T06:44:00.911Z,100953.70
2022-09-30T06:46:31.075Z,100951.24
2022-09-30T06:49:09.368Z,100955.99
2022-09-30T06:51:33.379Z,100955.14
2022-09-30T06:54:02.772Z,100959.13
2022-09-30T06:56:32.177Z,100956.25
2022-09-30T06:59:01.857Z,100958.75
2022-09-30T07:01:31.156Z,100959.64
2022-09-30T07:04:00.961Z,100969.19
2022-09-30T07:06:31.156Z,100957.47
2022-09-30T07:09:00.514Z,100957.56
2022-09-30T07:11:29.848Z,100959.84
2022-09-30T07:13:59.099Z,100954.28
2022-09-30T07:16:28.663Z,100963.03
2022-09-30T07:18:59.466Z,100953.97
2022-09-30T07:21:30.287Z,100953.30
2022-09-30T07:24:00.334Z,100954.48
2022-09-30T07:26:30.943Z,100957.30
2022-09-30T07:29:00.680Z,100960.91
2022-09-30T07:31:33.666Z,100959.98
2022-09-30T07:34:01.530Z,100958.14
2022-09-30T07:36:33.539Z,100963.08
2022-09-30T07:39:06.994Z,100963.20
2022-09-30T07:41:38.739Z,100940.61
2022-09-30T07:44:12.106Z,100956.11
2022-09-30T07:46:42.217Z,100958.89
2022-09-30T07:49:18.710Z,100952.48
2022-09-30T07:51:50.154Z,100954.45
2022-09-30T07:54:25.521Z,100951.80
2022-09-30T07:57:09.638Z,100952.65
2022-09-30T07:59:27.234Z,100950.53
2022-09-30T08:01:57.291Z,100946.56
2022-09-30T08:04:27.607Z,100947.98
2022-09-30T08:06:59.945Z,100955.16
2022-09-30T08:09:31.027Z,100959.28
2022-09-30T08:12:00.568Z,100962.56
2022-09-30T08:14:29.803Z,100950.55
2022-09-30T08:17:00.779Z,100949.21
2022-09-30T08:19:33.499Z,100944.33
2022-09-30T08:24:31.707Z,100951.13
2022-09-30T08:27:01.044Z,100948.97
2022-09-30T08:32:02.236Z,100957.84
2022-09-30T08:34:33.239Z,100961.83
2022-09-30T08:37:08.422Z,100959.91
2022-09-30T08:39:33.700Z,100960.22
2022-09-30T08:42:19.102Z,100952.62
2022-09-30T08:44:40.275Z,100969.91
2022-09-30T08:47:15.674Z,100968.27
2022-09-30T08:49:54.297Z,100967.23
2022-09-30T08:52:30.487Z,100967.06
2022-09-30T08:54:58.027Z,100973.13
2022-09-30T08:57:29.647Z,100967.13
2022-09-30T09:00:01.340Z,100975.30
2022-09-30T09:02:35.808Z,100979.05
2022-09-30T09:05:07.352Z,100978.64
2022-09-30T09:07:39.738Z,100979.22
2022-09-30T09:10:16.333Z,100969.01
2022-09-30T09:13:00.664Z,100959.69
2022-09-30T09:15:33.078Z,100973.42
2022-09-30T09:18:29.908Z,100967.94
2022-09-30T09:21:02.501Z,100972.47
2022-09-30T09:23:33.664Z,100977.13
2022-09-30T09:26:04.125Z,100967.76
2022-09-30T09:28:39.191Z,100976.56
2022-09-30T09:31:11.622Z,100966.27
2022-09-30T09:33:40.895Z,100965.87
2022-09-30T09:36:31.618Z,100965.13
2022-09-30T09:39:25.215Z,100975.66
2022-09-30T09:41:57.720Z,100974.64
2022-09-30T09:44:35.830Z,100969.06
2022-09-30T09:47:17.378Z,100968.44
2022-09-30T09:50:04.055Z,100968.11
2022-09-30T09:53:00.161Z,100969.26
2022-09-30T09:55:29.364Z,100978.65
2022-09-30T09:58:10.571Z,100973.42
2022-09-30T10:00:44.205Z,100977.84
2022-09-30T10:03:26.246Z,100981.92
2022-09-30T10:06:10.278Z,100975.42
2022-09-30T10:08:42.886Z,100977.04
2022-09-30T10:11:26.557Z,100979.34
2022-09-30T10:14:00.798Z,100983.77
2022-09-30T10:16:37.873Z,100978.12
2022-09-30T10:19:24.363Z,100971.95
2022-09-30T10:22:12.358Z,100971.42
2022-09-30T10:24:41.935Z,100978.00
2022-09-30T10:27:31.957Z,100980.16
2022-09-30T10:30:01.204Z,100979.84
2022-09-30T10:32:30.812Z,100982.89
2022-09-30T10:35:06.193Z,100986.83
2022-09-30T10:37:35.468Z,100983.84
2022-09-30T10:40:09.643Z,100980.23
2022-09-30T10:42:41.599Z,100969.68
2022-09-30T10:45:25.874Z,100972.26
2022-09-30T10:47:56.639Z,100969.94
2022-09-30T10:50:27.835Z,100967.28
2022-09-30T10:53:03.088Z,100963.60
2022-09-30T10:55:38.797Z,100970.97
2022-09-30T10:58:27.720Z,100974.82
2022-09-30T11:01:16.848Z,100969.27
2022-09-30T11:04:07.317Z,100970.97
2022-09-30T11:06:39.254Z,100962.04
2022-09-30T11:09:12.102Z,100955.89
2022-09-30T11:11:44.612Z,100957.84
2022-09-30T11:14:34.220Z,100954.03
2022-09-30T11:17:12.027Z,100956.09
2022-09-30T11:19:53.335Z,100956.31
2022-09-30T11:22:50.096Z,100957.67
2022-09-30T11:25:22.514Z,100955.71
2022-09-30T11:27:58.621Z,100953.36
2022-09-30T11:30:34.048Z,100955.84
2022-09-30T11:33:15.451Z,100951.60
2022-09-30T11:36:05.830Z,100955.56
2022-09-30T11:39:01.199Z,100948.16
2022-09-30T11:41:32.858Z,100948.95
2022-09-30T11:44:05.710Z,100942.61
2022-09-30T11:46:47.354Z,100944.56
2022-09-30T11:49:51.293Z,100938.36
2022-09-30T11:52:26.870Z,100935.06
2022-09-30T11:54:59.314Z,100926.88
2022-09-30T11:57:32.475Z,100929.91
2022-09-30T12:00:02.365Z,100924.72
2022-09-30T12:02:45.073Z,100925.33
2022-09-30T12:05:23.601Z,100923.53
2022-09-30T12:08:17.067Z,100919.13
2022-09-30T12:10:53.048Z,100914.38
2022-09-30T12:13:25.749Z,100910.19
2022-09-30T12:15:57.725Z,100906.98
2022-09-30T12:18:39.997Z,100904.98
2022-09-30T12:21:15.173Z,100911.05
2022-09-30T12:23:47.419Z,100907.14
2022-09-30T12:26:17.733Z,100901.42
2022-09-30T12:29:08.287Z,100910.28
2022-09-30T12:31:53.195Z,100903.20
2022-09-30T12:34:46.379Z,100901.53
2022-09-30T12:37:52.238Z,100903.22
2022-09-30T12:40:52.326Z,100903.52
2022-09-30T12:43:45.078Z,100892.98
2022-09-30T12:46:20.672Z,100896.51
2022-09-30T12:48:53.702Z,100888.73
2022-09-30T12:51:34.333Z,100885.43
2022-09-30T12:54:06.769Z,100879.00
2022-09-30T12:56:37.662Z,100878.55
2022-09-30T12:59:07.740Z,100881.95
2022-09-30T13:01:38.402Z,100881.58
2022-09-30T13:04:10.862Z,100876.20
2022-09-30T13:06:49.553Z,100868.75
2022-09-30T13:09:22.285Z,100867.37
2022-09-30T13:12:00.547Z,100861.23
2022-09-30T13:14:39.992Z,100870.78
2022-09-30T13:17:13.042Z,100863.97
2022-09-30T13:19:47.574Z,100860.09
2022-09-30T13:22:27.391Z,100859.00
2022-09-30T13:25:05.541Z,100851.00
2022-09-30T13:27:46.947Z,100851.22
2022-09-30T13:30:19.344Z,100848.73
2022-09-30T13:32:51.629Z,100846.92
2022-09-30T13:35:43.999Z,100842.12
2022-09-30T13:38:21.635Z,100842.42
2022-09-30T13:41:03.279Z,100841.54
2022-09-30T13:43:41.713Z,100838.26
2022-09-30T13:46:23.062Z,100845.49
2022-09-30T13:49:01.812Z,100835.58
2022-09-30T13:51:33.345Z,100841.83
2022-09-30T13:54:06.349Z,100834.80
2022-09-30T13:56:37.836Z,100831.80
2022-09-30T13:59:27.988Z,100824.43
2022-09-30T14:02:18.010Z,100824.65
2022-09-30T14:04:52.480Z,100826.81
2022-09-30T14:07:38.053Z,100822.28
2022-09-30T14:10:16.087Z,100816.56
2022-09-30T14:13:09.535Z,100818.91
2022-09-30T14:15:46.499Z,100812.73
2022-09-30T14:18:27.679Z,100806.03
2022-09-30T14:21:21.065Z,100811.34
2022-09-30T14:24:00.996Z,100810.12
2022-09-30T14:26:52.850Z,100802.10
2022-09-30T14:29:39.682Z,100801.33
2022-09-30T14:32:13.804Z,100790.20
2022-09-30T14:34:43.626Z,100789.66
2022-09-30T14:37:18.969Z,100780.52
2022-09-30T14:39:49.378Z,100776.37
2022-09-30T14:42:29.193Z,100782.63
2022-09-30T14:45:01.717Z,100778.34
2022-09-30T14:47:32.018Z,100775.75
2022-09-30T14:50:03.088Z,100767.84
2022-09-30T14:52:44.028Z,100767.66
2022-09-30T14:55:28.659Z,100767.02
2022-09-30T14:58:24.543Z,100772.78
2022-09-30T15:01:02.242Z,100781.57
2022-09-30T15:03:33.299Z,100781.57
2022-09-30T15:06:02.782Z,100778.22
2022-09-30T15:08:32.446Z,100783.19
2022-09-30T15:11:02.091Z,100787.42
2022-09-30T15:13:32.649Z,100795.34
2022-09-30T15:16:02.654Z,100797.47
2022-09-30T15:18:35.762Z,100793.30
2022-09-30T15:21:16.136Z,100791.14
2022-09-30T15:23:47.978Z,100791.31
2022-09-30T15:26:18.135Z,100794.42
2022-09-30T15:28:48.051Z,100790.69
2022-09-30T15:31:23.205Z,100786.00
2022-09-30T15:34:07.126Z,100784.80
2022-09-30T15:36:37.290Z,100781.98
2022-09-30T15:39:09.106Z,100790.48
2022-09-30T15:41:42.281Z,100784.03
2022-09-30T15:44:38.586Z,100792.02
2022-09-30T15:47:09.653Z,100788.10
2022-09-30T15:49:45.323Z,100789.46
2022-09-30T15:52:39.652Z,100789.42
2022-09-30T15:55:37.975Z,100801.15
2022-09-30T15:58:10.487Z,100798.84
2022-09-30T16:00:41.352Z,100782.88
2022-09-30T16:03:17.235Z,100779.94
2022-09-30T16:05:50.717Z,100773.41
2022-09-30T16:08:24.620Z,100773.55
2022-09-30T16:10:57.143Z,100774.23
2022-09-30T16:13:29.014Z,100777.40
2022-09-30T16:15:59.609Z,100771.25
2022-09-30T16:18:33.990Z,100776.22
2022-09-30T16:21:03.654Z,100769.44
2022-09-30T16:23:38.461Z,100764.72
2022-09-30T16:26:19.929Z,100762.63
2022-09-30T16:28:49.293Z,100764.78
2022-09-30T16:31:18.973Z,100756.19
2022-09-30T16:33:49.320Z,100764.62
2022-09-30T16:36:18.836Z,100759.01
2022-09-30T16:38:48.262Z,100763.83
2022-09-30T16:41:17.548Z,100761.53
2022-09-30T16:43:46.953Z,100758.33
2022-09-30T16:46:16.209Z,100756.54
2022-09-30T16:48:45.671Z,100758.50
2022-09-30T16:51:17.024Z,100756.66
2022-09-30T16:53:48.148Z,100755.86
2022-09-30T16:56:19.686Z,100745.09
2022-09-30T16:58:49.132Z,100735.66
2022-09-30T17:01:20.964Z,100734.11
2022-09-30T17:03:50.600Z,100744.93
2022-09-30T17:06:21.425Z,100737.05
2022-09-30T17:08:50.859Z,100737.00
2022-09-30T17:11:20.497Z,100743.58
2022-09-30T17:13:49.985Z,100738.72
2022-09-30T17:16:19.205Z,100736.02
2022-09-30T17:18:48.471Z,100737.66
2022-09-30T17:21:21.417Z,100736.88
2022-09-30T17:23:51.841Z,100733.95
2022-09-30T17:26:21.109Z,100740.73
2022-09-30T17:28:50.542Z,100733.20
2022-09-30T17:31:19.890Z,100727.00
2022-09-30T17:33:49.200Z,100727.59
2022-09-30T17:36:19.223Z,100718.78
2022-09-30T17:38:48.681Z,100727.50
2022-09-30T17:41:36.084Z,100727.20
2022-09-30T17:44:05.428Z,100725.05
2022-09-30T17:46:43.567Z,100724.59
2022-09-30T17:49:21.891Z,100723.80
2022-09-30T17:51:49.504Z,100722.19
2022-09-30T17:54:18.912Z,100728.05
2022-09-30T17:56:48.420Z,100721.69
2022-09-30T17:59:19.497Z,100730.05
2022-09-30T18:01:50.891Z,100729.59
2022-09-30T18:04:22.451Z,100729.63
2022-09-30T18:06:51.764Z,100728.87
2022-09-30T18:09:21.301Z,100725.32
2022-09-30T18:11:51.116Z,100720.22
2022-09-30T18:14:20.386Z,100715.70
2022-09-30T18:16:49.728Z,100710.63
2022-09-30T18:19:18.957Z,100708.27
2022-09-30T18:21:48.255Z,100710.42
2022-09-30T18:24:17.475Z,100707.67
2022-09-30T18:26:46.874Z,100683.44
2022-09-30T18:29:16.079Z,100698.42
2022-09-30T18:31:46.535Z,100692.77
2022-09-30T18:34:15.873Z,100690.61
2022-09-30T18:36:45.580Z,100685.21
2022-09-30T18:39:14.853Z,100682.51
2022-09-30T18:41:45.758Z,100680.36
2022-09-30T18:44:15.475Z,100667.18
2022-09-30T18:46:44.754Z,100663.17
2022-09-30T18:49:14.333Z,100657.27
2022-09-30T18:51:43.637Z,100649.45
2022-09-30T18:54:14.636Z,100644.34
2022-09-30T18:56:44.426Z,100644.64
2022-09-30T18:59:17.145Z,100630.59
2022-09-30T19:01:46.547Z,100625.23
2022-09-30T19:04:15.876Z,100616.61
2022-09-30T19:06:47.647Z,100605.81
2022-09-30T19:09:17.241Z,100605.26
2022-09-30T19:11:48.138Z,100607.72
2022-09-30T19:14:17.353Z,100600.97
2022-09-30T19:16:46.664Z,100604.50
2022-09-30T19:19:16.260Z,100601.80
2022-09-30T19:21:45.783Z,100600.97
2022-09-30T19:24:16.742Z,100608.77
2022-09-30T19:26:47.800Z,100606.36
2022-09-30T19:29:18.391Z,100591.96
2022-09-30T19:31:47.956Z,100592.77
2022-09-30T19:34:29.183Z,100590.35
2022-09-30T19:36:51.868Z,100593.61
2022-09-30T19:39:19.163Z,100600.40
2022-09-30T19:41:48.578Z,100595.77
2022-09-30T19:44:19.489Z,100589.52
2022-09-30T19:46:52.119Z,100581.32
2022-09-30T19:49:22.125Z,100575.10
2022-09-30T19:51:55.372Z,100570.30
2022-09-30T19:54:37.050Z,100567.05
2022-09-30T19:56:55.732Z,100562.66
2022-09-30T19:59:25.161Z,100554.55
2022-09-30T20:01:56.151Z,100548.70
2022-09-30T20:04:25.946Z,100536.28
2022-09-30T20:06:55.208Z,100523.97
2022-09-30T20:09:24.492Z,100538.58
2022-09-30T20:11:53.714Z,100533.98
2022-09-30T20:14:40.756Z,100518.81
2022-09-30T20:17:11.251Z,100522.81
2022-09-30T20:19:40.554Z,100519.07
2022-09-30T20:22:09.729Z,100509.66
2022-09-30T20:24:39.616Z,100518.46
2022-09-30T20:27:09.600Z,100508.01
2022-09-30T20:29:38.998Z,100499.61
2022-09-30T20:32:08.349Z,100501.76
2022-09-30T20:34:39.036Z,100504.95
2022-09-30T20:37:08.257Z,100486.27
2022-09-30T20:39:39.170Z,100493.53
2022-09-30T20:42:08.377Z,100488.13
2022-09-30T20:44:38.004Z,100485.42
2022-09-30T20:47:07.228Z,100481.69
2022-09-30T20:49:36.480Z,100478.73
2022-09-30T20:52:06.057Z,100482.04
2022-09-30T20:54:36.136Z,100477.97
2022-09-30T20:57:07.842Z,100470.74
2022-09-30T20:59:36.375Z,100466.98
2022-09-30T21:02:07.237Z,100459.78
2022-09-30T21:04:36.697Z,100462.85
2022-09-30T21:07:07.002Z,100462.66
2022-09-30T21:09:36.420Z,100456.72
2022-09-30T21:12:06.587Z,100457.59
2022-09-30T21:14:36.879Z,100464.78
2022-09-30T21:17:07.888Z,100462.36
2022-09-30T21:19:38.798Z,100459.27
2022-09-30T21:22:08.547Z,100454.47
2022-09-30T21:24:37.936Z,100452.42
2022-09-30T21:27:08.181Z,100457.34
2022-09-30T21:29:37.552Z,100456.61
2022-09-30T21:32:07.007Z,100445.12
2022-09-30T21:34:36.365Z,100446.78
2022-09-30T21:37:05.563Z,100448.07
2022-09-30T21:39:35.003Z,100455.17
2022-09-30T21:42:04.958Z,100464.37
2022-09-30T21:44:34.287Z,100456.00
2022-09-30T21:47:03.579Z,100457.12
2022-09-30T21:49:32.979Z,100460.96
2022-09-30T21:52:04.062Z,100457.73
2022-09-30T21:54:33.324Z,100458.56
2022-09-30T21:57:02.615Z,100456.17
2022-09-30T21:59:32.046Z,100453.23
2022-09-30T22:02:01.499Z,100444.13
2022-09-30T22:04:30.890Z,100433.63
2022-09-30T22:07:00.146Z,100434.47
2022-09-30T22:09:29.390Z,100427.20
2022-09-30T22:11:58.755Z,100409.72
2022-09-30T22:14:28.039Z,100384.71
2022-09-30T22:16:57.493Z,100372.91
2022-09-30T22:19:27.092Z,100352.44
2022-09-30T22:21:56.325Z,100333.91
2022-09-30T22:24:25.876Z,100328.77
2022-09-30T22:26:55.091Z,100302.42
2022-09-30T22:29:24.537Z,100286.84
2022-09-30T22:31:53.848Z,100294.09
2022-09-30T22:34:41.103Z,100280.41
2022-09-30T22:37:29.522Z,100269.90
2022-09-30T22:40:01.049Z,100258.91
2022-09-30T22:42:29.683Z,100271.81
2022-09-30T22:44:59.059Z,100255.39
2022-09-30T22:47:28.371Z,100255.66
2022-09-30T22:49:57.677Z,100266.44
2022-09-30T22:52:26.927Z,100271.02
2022-09-30T22:54:57.035Z,100284.72
2022-09-30T22:57:26.417Z,100278.53
2022-09-30T22:59:57.281Z,100286.07
2022-09-30T23:02:26.680Z,100284.19
2022-09-30T23:04:55.923Z,100280.68
2022-09-30T23:07:25.279Z,100293.88
2022-09-30T23:09:54.525Z,100293.58
2022-09-30T23:12:24.498Z,100298.97
2022-09-30T23:14:53.926Z,100285.78
2022-09-30T23:17:23.343Z,100268.84
2022-09-30T23:19:52.552Z,100244.09
2022-09-30T23:22:21.987Z,100237.09
2022-09-30T23:24:51.219Z,100239.25
2022-09-30T23:27:20.484Z,100233.33
2022-09-30T23:29:49.700Z,100220.39
2022-09-30T23:32:19.272Z,100213.41
2022-09-30T23:34:48.633Z,100211.53
2022-09-30T23:37:17.983Z,100195.91
2022-09-30T23:39:48.450Z,100183.25
2022-09-30T23:42:18.742Z,100177.08
2022-09-30T23:44:48.030Z,100167.08
2022-09-30T23:47:19.964Z,100177.30
2022-09-30T23:49:50.361Z,100156.58
2022-09-30T23:52:19.594Z,100162.73
2022-09-30T23:54:48.808Z,100153.83
2022-09-30T23:57:18.215Z,100158.13
2022-09-30T23:59:47.500Z,100139.06
